Time;durP1;ratioP1;P1;durP2;ratioP2;P2;SDS_P1;SDS_P2;PMS_P1;PMS_P2;Temp;Humidity;BMP_temperature;BMP_pressure;BME280_temperature;BME280_humidity;BME280_pressure;Samples;Min_cycle;Max_cycle;Signal;HPM_P1;HPM_P2
2024/03/20 00:00:06;;;;;;;13.77;6.10;;;11.40;99.90;;;;;;5107227;28;20028;-45
2024/03/20 00:02:31;;;;;;;11.75;5.55;;;11.40;99.90;;;;;;5106816;28;20293;-47
2024/03/20 00:04:57;;;;;;;13.00;5.65;;;11.40;99.90;;;;;;5107331;28;20024;-44
2024/03/20 00:07:23;;;;;;;12.88;4.93;;;11.30;99.90;;;;;;5107391;28;20028;-43
2024/03/20 00:09:49;;;;;;;15.93;5.90;;;11.40;99.90;;;;;;5089529;28;20038;-47
2024/03/20 00:12:15;;;;;;;15.30;4.95;;;11.40;99.90;;;;;;5107236;28;20043;-45
2024/03/20 00:14:41;;;;;;;14.38;5.22;;;11.30;99.90;;;;;;5089497;28;20219;-45
2024/03/20 00:17:07;;;;;;;14.02;5.22;;;11.30;99.90;;;;;;5107022;28;20232;-47
2024/03/20 00:19:34;;;;;;;16.27;6.00;;;11.40;99.90;;;;;;5107253;28;20277;-45
2024/03/20 00:21:59;;;;;;;14.75;4.80;;;11.30;99.90;;;;;;5107258;28;20036;-45
2024/03/20 00:24:25;;;;;;;13.43;5.50;;;11.30;99.90;;;;;;5106715;28;20223;-47
2024/03/20 00:26:51;;;;;;;14.45;6.28;;;11.30;99.90;;;;;;5106737;28;20075;-45
2024/03/20 00:29:16;;;;;;;13.85;5.47;;;11.20;99.90;;;;;;5106935;28;20074;-48
2024/03/20 00:31:43;;;;;;;15.40;5.80;;;11.20;99.90;;;;;;5107051;28;20158;-46
2024/03/20 00:34:08;;;;;;;15.88;6.07;;;11.20;99.90;;;;;;5106994;28;20012;-44
2024/03/20 00:36:34;;;;;;;12.77;5.55;;;11.10;99.90;;;;;;5106733;28;20087;-45
2024/03/20 00:39:00;;;;;;;14.02;6.22;;;11.10;99.90;;;;;;5106633;28;20330;-44
2024/03/20 00:41:25;;;;;;;15.82;5.70;;;11.10;99.90;;;;;;5105970;28;20020;-43
2024/03/20 00:43:51;;;;;;;17.98;6.20;;;11.10;99.90;;;;;;5106877;28;20051;-45
2024/03/20 00:46:17;;;;;;;15.00;5.35;;;11.10;99.90;;;;;;5106179;28;20027;-45
2024/03/20 00:48:42;;;;;;;12.63;5.50;;;11.20;99.90;;;;;;5106405;28;20028;-45
2024/03/20 00:51:08;;;;;;;13.05;5.32;;;11.10;99.90;;;;;;5088810;28;20066;-45
2024/03/20 00:53:34;;;;;;;18.17;5.93;;;11.10;99.90;;;;;;5106519;28;20058;-45
2024/03/20 00:56:00;;;;;;;16.10;6.25;;;11.10;99.90;;;;;;5106576;28;20019;-46
2024/03/20 00:58:29;;;;;;;12.15;4.97;;;11.00;99.90;;;;;;5106308;28;20020;-47
2024/03/20 01:00:55;;;;;;;15.27;5.38;;;11.00;99.90;;;;;;5106311;28;20257;-44
2024/03/20 01:03:21;;;;;;;17.88;6.03;;;11.00;99.90;;;;;;5106449;28;20085;-44
2024/03/20 01:05:47;;;;;;;14.68;5.57;;;11.00;99.90;;;;;;5106449;28;20150;-44
2024/03/20 01:08:14;;;;;;;14.65;5.80;;;11.00;99.90;;;;;;5088247;28;20245;-43
2024/03/20 01:10:40;;;;;;;15.52;5.30;;;11.00;99.90;;;;;;5106048;28;20024;-44
2024/03/20 01:13:06;;;;;;;17.13;5.72;;;11.00;99.90;;;;;;5106349;28;20062;-45
2024/03/20 01:15:34;;;;;;;11.68;4.90;;;10.90;99.90;;;;;;5106187;28;20027;-44
2024/03/20 01:17:59;;;;;;;15.52;5.20;;;11.00;99.90;;;;;;5105703;28;20308;-44
2024/03/20 01:20:25;;;;;;;17.63;6.05;;;10.90;99.90;;;;;;5106189;28;20047;-46
2024/03/20 01:22:51;;;;;;;13.25;5.25;;;11.00;99.90;;;;;;5106033;28;20039;-44
2024/03/20 01:25:17;;;;;;;13.43;4.68;;;11.00;99.90;;;;;;5105706;28;20052;-47
2024/03/20 01:27:43;;;;;;;13.95;5.45;;;11.00;99.90;;;;;;5106147;28;20277;-45
2024/03/20 01:30:09;;;;;;;11.38;4.65;;;11.00;99.90;;;;;;5105996;28;20095;-45
2024/03/20 01:32:35;;;;;;;11.32;4.75;;;10.90;99.90;;;;;;5088011;28;20035;-45
2024/03/20 01:35:01;;;;;;;13.73;4.78;;;10.90;99.90;;;;;;5105829;28;20020;-46
2024/03/20 01:37:26;;;;;;;12.02;5.55;;;10.90;99.90;;;;;;5106003;28;20024;-44
2024/03/20 01:39:52;;;;;;;12.27;4.45;;;10.90;99.90;;;;;;5105943;28;20081;-44
2024/03/20 01:42:18;;;;;;;14.75;5.00;;;10.90;99.90;;;;;;5105919;28;20053;-44
2024/03/20 01:44:43;;;;;;;10.95;4.57;;;10.80;99.90;;;;;;5105869;28;20100;-45
2024/03/20 01:47:09;;;;;;;11.43;4.55;;;10.80;99.90;;;;;;5105760;28;20051;-44
2024/03/20 01:49:35;;;;;;;11.93;4.88;;;10.80;99.90;;;;;;5105399;28;20028;-44
2024/03/20 01:52:00;;;;;;;12.60;4.97;;;10.80;99.90;;;;;;5108020;28;20087;-46
2024/03/20 01:54:26;;;;;;;14.48;4.47;;;10.70;99.90;;;;;;5109755;28;20024;-45
2024/03/20 01:56:54;;;;;;;11.15;4.70;;;10.70;99.90;;;;;;5092054;28;20023;-44
2024/03/20 01:59:20;;;;;;;15.50;5.18;;;10.70;99.90;;;;;;5109830;28;20027;-45
2024/03/20 02:01:45;;;;;;;11.80;4.78;;;10.60;99.90;;;;;;5091918;28;20028;-44
2024/03/20 02:04:11;;;;;;;10.60;4.90;;;10.60;99.90;;;;;;5109471;28;20317;-44
2024/03/20 02:06:37;;;;;;;15.57;5.68;;;10.70;99.90;;;;;;5109771;28;20078;-44
2024/03/20 02:09:04;;;;;;;15.50;5.75;;;10.70;99.90;;;;;;5109665;28;20035;-44
2024/03/20 02:11:30;;;;;;;14.57;5.50;;;10.60;99.90;;;;;;5091757;28;20031;-44
2024/03/20 02:13:56;;;;;;;17.88;6.30;;;10.60;99.90;;;;;;5091799;28;20032;-51
2024/03/20 02:16:23;;;;;;;16.38;6.28;;;10.70;99.90;;;;;;5109772;28;20126;-48
2024/03/20 02:18:49;;;;;;;13.63;6.30;;;10.70;99.90;;;;;;5109575;28;20016;-49
2024/03/20 02:21:15;;;;;;;15.95;5.88;;;10.70;99.90;;;;;;5109092;28;20358;-51
2024/03/20 02:23:41;;;;;;;14.13;5.25;;;10.70;99.90;;;;;;5109526;28;20104;-51
2024/03/20 02:26:07;;;;;;;17.50;6.57;;;10.70;99.90;;;;;;5109054;28;20213;-51
2024/03/20 02:28:38;;;;;;;14.32;5.75;;;10.70;99.90;;;;;;5109080;28;20036;-51
2024/03/20 02:31:04;;;;;;;18.23;5.90;;;10.70;99.90;;;;;;5109244;28;20030;-51
2024/03/20 02:33:31;;;;;;;16.58;5.70;;;10.60;99.90;;;;;;5091627;28;20026;-52
2024/03/20 02:35:56;;;;;;;15.20;6.43;;;10.60;99.90;;;;;;5108773;28;20024;-49
2024/03/20 02:38:23;;;;;;;16.70;6.55;;;10.70;99.90;;;;;;5108983;28;20101;-51
2024/03/20 02:40:49;;;;;;;15.82;5.93;;;10.60;99.90;;;;;;5109002;28;20063;-50
2024/03/20 02:43:15;;;;;;;13.90;5.50;;;10.60;99.90;;;;;;5091297;28;20024;-51
2024/03/20 02:45:41;;;;;;;13.82;5.05;;;10.60;99.90;;;;;;5109045;28;20042;-51
2024/03/20 02:48:07;;;;;;;14.02;5.65;;;10.60;99.90;;;;;;5090930;28;20340;-50
2024/03/20 02:50:33;;;;;;;15.23;5.43;;;10.70;99.90;;;;;;5108700;28;20278;-48
2024/03/20 02:53:04;;;;;;;13.75;5.18;;;10.60;99.90;;;;;;5090640;28;20020;-51
2024/03/20 02:55:33;;;;;;;13.27;5.90;;;10.60;99.90;;;;;;5108990;28;20020;-48
2024/03/20 02:58:00;;;;;;;13.35;5.00;;;10.70;99.90;;;;;;5108907;28;20214;-50
2024/03/20 03:00:26;;;;;;;16.10;5.57;;;10.70;99.90;;;;;;5108364;28;20282;-50
2024/03/20 03:02:53;;;;;;;13.55;4.97;;;10.70;99.90;;;;;;5089780;28;20020;-51
2024/03/20 03:05:20;;;;;;;14.45;4.22;;;10.70;99.90;;;;;;5108588;28;20039;-48
2024/03/20 03:07:47;;;;;;;12.18;4.28;;;10.70;99.90;;;;;;5108100;28;20050;-48
2024/03/20 03:10:14;;;;;;;9.82;3.67;;;10.70;99.90;;;;;;5108178;28;20054;-51
2024/03/20 03:12:40;;;;;;;8.90;3.58;;;10.60;99.90;;;;;;5108284;28;20381;-51
2024/03/20 03:15:06;;;;;;;9.75;3.70;;;10.70;99.90;;;;;;5108482;28;20270;-50
2024/03/20 03:17:32;;;;;;;10.73;3.60;;;10.60;99.90;;;;;;5108468;28;20020;-50
2024/03/20 03:19:57;;;;;;;10.80;3.53;;;10.60;99.90;;;;;;5108373;28;20083;-50
2024/03/20 03:22:23;;;;;;;9.13;3.17;;;10.60;99.90;;;;;;5108256;28;20020;-50
2024/03/20 03:24:48;;;;;;;8.05;3.30;;;10.60;99.90;;;;;;5108030;28;20020;-50
2024/03/20 03:27:14;;;;;;;10.15;3.78;;;10.60;99.90;;;;;;5108312;28;20028;-49
2024/03/20 03:29:40;;;;;;;11.23;4.47;;;10.50;99.90;;;;;;5108071;28;20110;-50
2024/03/20 03:32:06;;;;;;;9.65;3.15;;;10.50;99.90;;;;;;5108263;28;20012;-51
2024/03/20 03:34:32;;;;;;;9.10;3.65;;;10.50;99.90;;;;;;5090259;28;20285;-50
2024/03/20 03:36:58;;;;;;;9.95;3.67;;;10.50;99.90;;;;;;5107980;28;20173;-47
2024/03/20 03:39:24;;;;;;;12.38;4.13;;;10.60;99.90;;;;;;5107638;28;20096;-50
2024/03/20 03:41:50;;;;;;;9.50;3.72;;;10.60;99.90;;;;;;5107982;28;20095;-51
2024/03/20 03:44:15;;;;;;;12.65;4.22;;;10.50;99.90;;;;;;5107488;28;20299;-50
2024/03/20 03:46:41;;;;;;;10.07;3.80;;;10.60;99.90;;;;;;5107673;28;20031;-51
2024/03/20 03:49:08;;;;;;;6.90;3.40;;;10.60;99.90;;;;;;5107653;28;20036;-47
2024/03/20 03:51:34;;;;;;;10.25;3.42;;;10.50;99.90;;;;;;5107795;28;20100;-47
2024/03/20 03:54:00;;;;;;;13.60;4.60;;;10.50;99.90;;;;;;5107698;28;20020;-51
2024/03/20 03:56:26;;;;;;;10.32;3.78;;;10.50;99.90;;;;;;5107650;28;20031;-47
2024/03/20 03:58:51;;;;;;;8.68;3.55;;;10.50;99.90;;;;;;5107519;28;20189;-50
2024/03/20 04:01:17;;;;;;;10.77;4.20;;;10.50;99.90;;;;;;5107624;28;20024;-51
2024/03/20 04:03:42;;;;;;;9.88;3.20;;;10.60;99.90;;;;;;5089890;28;20042;-51
2024/03/20 04:06:08;;;;;;;10.00;3.75;;;10.50;99.90;;;;;;5107585;28;20069;-52
2024/03/20 04:08:34;;;;;;;10.35;3.35;;;10.50;99.90;;;;;;5107309;28;20184;-48
2024/03/20 04:10:59;;;;;;;10.50;4.00;;;10.50;99.90;;;;;;5089347;28;20087;-50
2024/03/20 04:13:25;;;;;;;11.63;3.95;;;10.50;99.90;;;;;;5107394;28;20186;-51
2024/03/20 04:15:52;;;;;;;8.35;3.00;;;10.50;99.90;;;;;;5106635;28;20038;-49
2024/03/20 04:18:19;;;;;;;12.80;4.60;;;10.50;99.90;;;;;;5107223;28;20103;-51
2024/03/20 04:20:44;;;;;;;9.23;4.15;;;10.50;99.90;;;;;;5089290;28;20032;-51
2024/03/20 04:23:10;;;;;;;8.88;3.25;;;10.50;99.90;;;;;;5107057;28;20083;-48
2024/03/20 04:25:36;;;;;;;11.23;3.28;;;10.50;99.90;;;;;;5106653;28;20317;-49
2024/03/20 04:28:01;;;;;;;8.50;3.20;;;10.50;99.90;;;;;;5106513;28;20091;-47
2024/03/20 04:30:27;;;;;;;8.18;3.00;;;10.40;99.90;;;;;;5089056;28;20380;-52
2024/03/20 04:32:53;;;;;;;11.77;3.40;;;10.40;99.90;;;;;;5106758;28;20039;-52
2024/03/20 04:35:18;;;;;;;7.85;3.00;;;10.40;99.90;;;;;;5088931;28;20058;-50
2024/03/20 04:37:44;;;;;;;9.07;3.22;;;10.30;99.90;;;;;;5106948;28;20020;-52
2024/03/20 04:40:10;;;;;;;11.60;3.72;;;10.30;99.90;;;;;;5106866;28;20066;-47
2024/03/20 04:42:36;;;;;;;9.57;3.95;;;10.30;99.90;;;;;;5106589;28;20036;-52
2024/03/20 04:45:01;;;;;;;14.55;4.00;;;10.20;99.90;;;;;;5106651;28;20153;-49
2024/03/20 04:47:27;;;;;;;8.57;3.38;;;10.30;99.90;;;;;;5088720;28;20028;-51
2024/03/20 04:49:53;;;;;;;11.07;3.70;;;10.20;99.90;;;;;;5106610;28;20035;-48
2024/03/20 04:52:18;;;;;;;8.82;3.88;;;10.20;99.90;;;;;;5106294;28;20031;-51
2024/03/20 04:54:44;;;;;;;8.65;3.35;;;10.20;99.90;;;;;;5106599;28;20028;-49
2024/03/20 04:57:10;;;;;;;7.05;2.90;;;10.20;99.90;;;;;;5106524;28;20039;-51
2024/03/20 04:59:35;;;;;;;8.98;3.08;;;10.20;99.90;;;;;;5106174;28;20285;-52
2024/03/20 05:02:02;;;;;;;7.45;3.10;;;10.20;99.90;;;;;;5106522;28;20028;-51
2024/03/20 05:04:28;;;;;;;5.35;2.78;;;10.10;99.90;;;;;;5106352;28;20024;-49
2024/03/20 05:06:53;;;;;;;6.28;2.85;;;10.00;99.90;;;;;;5106347;28;20222;-49
2024/03/20 05:09:19;;;;;;;7.80;2.92;;;10.00;99.90;;;;;;5106242;28;20063;-49
2024/03/20 05:11:45;;;;;;;6.53;3.08;;;10.00;99.90;;;;;;5106416;28;20052;-49
2024/03/20 05:14:11;;;;;;;7.90;3.28;;;10.10;99.90;;;;;;5105706;28;20028;-52
2024/03/20 05:16:36;;;;;;;9.57;3.30;;;10.10;99.90;;;;;;5106295;28;20285;-51
2024/03/20 05:19:02;;;;;;;8.45;3.30;;;10.00;99.90;;;;;;5106087;28;20302;-49
2024/03/20 05:21:28;;;;;;;5.50;2.40;;;10.00;99.90;;;;;;5106198;28;20028;-49
2024/03/20 05:23:54;;;;;;;8.32;3.75;;;10.00;99.90;;;;;;5106086;28;20028;-48
2024/03/20 05:26:20;;;;;;;8.98;3.00;;;10.00;99.90;;;;;;5102574;28;20087;-49
2024/03/20 05:28:46;;;;;;;10.52;3.60;;;10.00;99.90;;;;;;5126341;28;20032;-51
2024/03/20 05:31:28;;;;;;;6.13;2.58;;;10.10;99.90;;;;;;5126149;28;20027;-50
2024/03/20 05:33:54;;;;;;;8.35;2.88;;;10.10;99.90;;;;;;5126453;28;20038;-47
2024/03/20 05:36:19;;;;;;;8.85;3.70;;;10.10;99.90;;;;;;5126282;28;20281;-49
2024/03/20 05:38:45;;;;;;;6.68;2.85;;;10.10;99.90;;;;;;5126317;28;20024;-48
2024/03/20 05:41:11;;;;;;;9.82;3.13;;;10.20;99.90;;;;;;5126311;28;20027;-46
2024/03/20 05:43:36;;;;;;;8.70;4.60;;;10.20;99.90;;;;;;5126389;28;20020;-46
2024/03/20 05:46:03;;;;;;;8.85;2.97;;;10.20;99.90;;;;;;5108030;28;20031;-49
2024/03/20 05:48:29;;;;;;;9.10;3.67;;;10.20;99.90;;;;;;5126106;28;20281;-48
2024/03/20 05:50:56;;;;;;;8.60;3.92;;;10.20;99.90;;;;;;5125935;28;20083;-50
2024/03/20 05:53:22;;;;;;;10.27;3.90;;;10.20;99.90;;;;;;5126131;28;20261;-50
2024/03/20 05:55:48;;;;;;;10.38;5.05;;;10.10;99.90;;;;;;5108284;28;20065;-50
2024/03/20 05:58:14;;;;;;;13.40;5.65;;;10.20;99.90;;;;;;5125795;28;20020;-49
2024/03/20 06:00:40;;;;;;;12.38;6.32;;;10.20;99.90;;;;;;5125891;28;20027;-50
2024/03/20 06:03:05;;;;;;;17.00;8.10;;;10.20;99.90;;;;;;5125585;28;20163;-45
2024/03/20 06:05:31;;;;;;;16.67;6.55;;;10.20;99.90;;;;;;5125987;28;20038;-49
2024/03/20 06:07:57;;;;;;;15.82;7.40;;;10.30;99.90;;;;;;5125954;28;20276;-50
2024/03/20 06:10:24;;;;;;;14.93;6.90;;;10.30;99.90;;;;;;5125913;28;20024;-46
2024/03/20 06:12:49;;;;;;;17.45;8.48;;;10.30;99.90;;;;;;5125799;28;20069;-50
2024/03/20 06:15:15;;;;;;;12.50;5.35;;;10.30;99.90;;;;;;5125936;28;20024;-47
2024/03/20 06:17:42;;;;;;;14.35;5.60;;;10.30;99.90;;;;;;5125498;28;20035;-49
2024/03/20 06:20:09;;;;;;;11.45;4.30;;;10.30;99.90;;;;;;5108361;28;20120;-50
2024/03/20 06:22:35;;;;;;;11.10;4.20;;;10.20;99.90;;;;;;5125603;28;20022;-48
2024/03/20 06:25:06;;;;;;;10.48;5.28;;;10.30;99.90;;;;;;5125365;28;20067;-50
2024/03/20 06:27:32;;;;;;;11.45;4.05;;;10.30;99.90;;;;;;5108537;28;20094;-48
2024/03/20 06:29:58;;;;;;;10.10;4.75;;;10.30;99.90;;;;;;5125822;28;20037;-48
2024/03/20 06:32:25;;;;;;;7.82;3.42;;;10.30;99.90;;;;;;5125628;28;20042;-50
2024/03/20 06:34:51;;;;;;;9.63;3.70;;;10.30;99.90;;;;;;5125556;28;20285;-49
2024/03/20 06:37:17;;;;;;;9.82;3.80;;;10.30;99.90;;;;;;5126583;28;20031;-50
2024/03/20 06:39:43;;;;;;;10.18;5.95;;;10.30;99.90;;;;;;5111422;28;20036;-51
2024/03/20 06:42:20;;;;;;;9.32;3.00;;;10.30;99.90;;;;;;5129688;28;20094;-50
2024/03/20 06:44:49;;;;;;;7.78;3.13;;;10.30;99.90;;;;;;5113303;28;20015;-50
2024/03/20 06:47:16;;;;;;;8.00;3.10;;;10.30;99.90;;;;;;5129099;28;20042;-49
2024/03/20 06:49:43;;;;;;;8.13;3.58;;;10.30;99.90;;;;;;5128926;28;20030;-47
2024/03/20 06:52:08;;;;;;;8.32;4.07;;;10.20;99.90;;;;;;5128959;28;20186;-50
2024/03/20 06:54:34;;;;;;;8.85;3.53;;;10.20;99.90;;;;;;5129111;28;20042;-51
2024/03/20 06:57:03;;;;;;;10.00;3.95;;;10.20;99.90;;;;;;5128993;28;20153;-50
2024/03/20 06:59:30;;;;;;;7.87;4.07;;;10.20;99.90;;;;;;5111804;28;20027;-49
2024/03/20 07:01:58;;;;;;;10.35;3.75;;;10.20;99.90;;;;;;5129338;28;20027;-49
2024/03/20 07:04:25;;;;;;;10.32;3.50;;;10.30;99.90;;;;;;5128848;28;20027;-46
2024/03/20 07:06:51;;;;;;;8.65;4.15;;;10.30;99.90;;;;;;5111323;28;20030;-50
2024/03/20 07:09:17;;;;;;;8.07;3.13;;;10.30;99.90;;;;;;5128911;28;20032;-46
2024/03/20 07:11:42;;;;;;;8.73;3.97;;;10.30;99.90;;;;;;5112382;28;20057;-46
2024/03/20 07:14:08;;;;;;;7.53;3.28;;;10.30;99.90;;;;;;5129064;28;20023;-47
2024/03/20 07:16:34;;;;;;;7.10;3.20;;;10.40;99.90;;;;;;5128874;28;20019;-50
2024/03/20 07:18:59;;;;;;;5.38;2.80;;;10.30;99.90;;;;;;5130578;28;20237;-47
2024/03/20 07:21:25;;;;;;;6.55;2.97;;;10.20;99.90;;;;;;5128724;28;20027;-46
2024/03/20 07:23:51;;;;;;;9.95;3.28;;;10.20;99.90;;;;;;5128903;28;20038;-46
2024/03/20 07:26:17;;;;;;;12.80;4.93;;;10.20;99.90;;;;;;5128938;28;20158;-46
2024/03/20 07:28:43;;;;;;;8.38;3.08;;;10.20;99.90;;;;;;5128668;28;20032;-49
2024/03/20 07:31:09;;;;;;;5.68;2.67;;;10.20;99.90;;;;;;5129030;28;20020;-46
2024/03/20 07:33:36;;;;;;;7.72;3.45;;;10.20;99.90;;;;;;5129602;28;20308;-47
2024/03/20 07:36:01;;;;;;;5.15;2.40;;;10.10;99.90;;;;;;5128433;28;20043;-47
2024/03/20 07:38:27;;;;;;;5.93;2.47;;;10.10;99.90;;;;;;5128961;28;20032;-46
2024/03/20 07:40:53;;;;;;;6.40;3.78;;;10.10;99.90;;;;;;5129580;28;20024;-47
2024/03/20 07:43:20;;;;;;;5.60;2.58;;;10.20;99.90;;;;;;5110714;28;20192;-46
2024/03/20 07:45:46;;;;;;;5.20;2.35;;;10.20;99.90;;;;;;5110372;28;20043;-49
2024/03/20 07:48:12;;;;;;;9.02;4.72;;;10.10;99.90;;;;;;5127405;28;20030;-49
2024/03/20 07:50:38;;;;;;;8.07;3.47;;;10.10;99.90;;;;;;5127005;28;20047;-47
2024/03/20 07:53:05;;;;;;;7.60;2.42;;;10.10;99.90;;;;;;5127713;28;20066;-47
2024/03/20 07:55:31;;;;;;;9.93;4.65;;;10.10;99.90;;;;;;5127822;28;20018;-46
2024/03/20 07:57:57;;;;;;;7.70;2.90;;;10.20;99.90;;;;;;5127533;28;20094;-48
2024/03/20 08:00:28;;;;;;;5.07;2.75;;;10.10;99.90;;;;;;5127890;28;20032;-49
2024/03/20 08:02:57;;;;;;;4.78;2.63;;;10.20;99.90;;;;;;5127639;28;20292;-47
2024/03/20 08:05:23;;;;;;;4.82;2.63;;;10.20;99.90;;;;;;5127742;28;20027;-48
2024/03/20 08:07:49;;;;;;;6.70;2.45;;;10.20;99.90;;;;;;5127493;28;20066;-48
2024/03/20 08:10:15;;;;;;;5.88;2.60;;;10.20;99.90;;;;;;5127036;28;20023;-49
2024/03/20 08:12:41;;;;;;;6.35;3.03;;;10.20;99.90;;;;;;5127379;28;20292;-46
2024/03/20 08:15:07;;;;;;;5.43;2.45;;;10.20;99.90;;;;;;5109504;28;20294;-49
2024/03/20 08:17:33;;;;;;;5.05;2.33;;;10.20;99.90;;;;;;5127512;28;20023;-49
2024/03/20 08:19:59;;;;;;;6.75;2.38;;;10.20;99.90;;;;;;5127464;28;20023;-46
2024/03/20 08:22:26;;;;;;;6.68;3.05;;;10.30;99.90;;;;;;5126986;28;20034;-46
2024/03/20 08:24:52;;;;;;;6.00;2.30;;;10.20;99.90;;;;;;5126479;28;20046;-46
2024/03/20 08:27:24;;;;;;;7.93;2.80;;;10.20;99.90;;;;;;5126665;28;20083;-49
2024/03/20 08:29:51;;;;;;;6.65;2.63;;;10.20;99.90;;;;;;5126528;28;20031;-46
2024/03/20 08:32:17;;;;;;;5.28;2.47;;;10.20;99.90;;;;;;5127005;28;20020;-47
2024/03/20 08:34:43;;;;;;;7.47;2.53;;;10.30;99.90;;;;;;5126674;28;20043;-49
2024/03/20 08:37:09;;;;;;;8.27;3.00;;;10.20;99.90;;;;;;5108921;28;20042;-50
2024/03/20 08:39:35;;;;;;;7.63;2.70;;;10.30;99.90;;;;;;5126657;28;20030;-49
2024/03/20 08:42:01;;;;;;;6.70;2.50;;;10.30;99.90;;;;;;5126709;28;20024;-48
2024/03/20 08:44:27;;;;;;;8.23;2.85;;;10.30;99.90;;;;;;5126426;28;20219;-49
2024/03/20 08:46:52;;;;;;;6.53;2.70;;;10.40;99.90;;;;;;5126454;28;20027;-49
2024/03/20 08:49:18;;;;;;;7.13;2.65;;;10.40;99.90;;;;;;5126215;28;20028;-49
2024/03/20 08:51:44;;;;;;;6.90;3.00;;;10.50;99.90;;;;;;5126453;28;20031;-49
2024/03/20 08:54:12;;;;;;;6.57;2.60;;;10.50;99.90;;;;;;5108560;28;20072;-47
2024/03/20 08:56:38;;;;;;;4.50;2.53;;;10.60;99.90;;;;;;5125869;28;20181;-51
2024/03/20 08:59:04;;;;;;;6.00;2.28;;;10.60;99.90;;;;;;5126208;28;20015;-51
2024/03/20 09:01:29;;;;;;;5.60;2.60;;;10.60;99.90;;;;;;5125586;28;20027;-50
2024/03/20 09:03:55;;;;;;;7.05;2.45;;;10.60;99.90;;;;;;5126428;28;20027;-48
2024/03/20 09:06:20;;;;;;;4.90;2.53;;;10.60;99.90;;;;;;5091346;28;20046;-50
2024/03/20 09:08:46;;;;;;;6.90;3.47;;;10.60;99.90;;;;;;5126104;28;20023;-50
2024/03/20 09:11:12;;;;;;;5.13;2.90;;;10.70;99.90;;;;;;5108393;28;20028;-50
2024/03/20 09:13:38;;;;;;;7.95;3.50;;;10.70;99.90;;;;;;5126315;28;20024;-52
2024/03/20 09:16:04;;;;;;;7.05;2.55;;;10.80;99.90;;;;;;5126157;28;20020;-50
2024/03/20 09:18:30;;;;;;;8.57;3.17;;;10.80;99.90;;;;;;5125824;28;20031;-50
2024/03/20 09:20:56;;;;;;;5.55;2.67;;;10.80;99.90;;;;;;5126190;28;20283;-50
2024/03/20 09:23:23;;;;;;;5.47;2.50;;;10.80;99.90;;;;;;5126274;28;20072;-50
2024/03/20 09:25:49;;;;;;;7.60;2.67;;;10.90;99.90;;;;;;5093602;28;20333;-51
2024/03/20 09:28:16;;;;;;;7.55;2.50;;;11.00;99.90;;;;;;5085254;28;20044;-50
2024/03/20 09:30:42;;;;;;;6.35;2.50;;;11.00;99.90;;;;;;5085287;28;20312;-48
2024/03/20 09:33:07;;;;;;;7.57;2.60;;;11.10;99.90;;;;;;5085469;28;20025;-49
2024/03/20 09:35:33;;;;;;;6.90;2.80;;;11.10;99.90;;;;;;5085219;28;20031;-49
2024/03/20 09:37:59;;;;;;;6.00;2.53;;;11.10;99.90;;;;;;5085243;28;20024;-50
2024/03/20 09:40:26;;;;;;;8.77;3.10;;;11.10;99.90;;;;;;5085167;28;20024;-50
2024/03/20 09:42:55;;;;;;;7.70;3.05;;;11.20;99.90;;;;;;5085301;28;20249;-50
2024/03/20 09:45:23;;;;;;;9.38;2.40;;;11.30;99.90;;;;;;5067288;28;20037;-50
2024/03/20 09:47:50;;;;;;;6.35;2.67;;;11.30;99.90;;;;;;5083569;28;20028;-48
2024/03/20 09:50:15;;;;;;;8.32;2.47;;;11.20;99.90;;;;;;5084671;28;20261;-50
2024/03/20 09:52:41;;;;;;;7.88;2.90;;;11.10;99.90;;;;;;5084989;28;20031;-50
2024/03/20 09:55:11;;;;;;;8.70;3.70;;;11.20;99.90;;;;;;5067354;28;20194;-51
2024/03/20 09:57:38;;;;;;;13.02;4.43;;;11.30;99.90;;;;;;5084727;28;20247;-49
2024/03/20 10:00:06;;;;;;;11.57;4.78;;;11.40;99.90;;;;;;5084463;28;20190;-49
2024/03/20 10:02:32;;;;;;;9.68;4.63;;;11.50;99.90;;;;;;5067340;28;20062;-47
2024/03/20 10:04:58;;;;;;;14.35;5.45;;;11.50;99.90;;;;;;5066095;28;20027;-49
2024/03/20 10:07:23;;;;;;;7.18;3.10;;;11.50;99.90;;;;;;5067068;28;20024;-49
2024/03/20 10:09:49;;;;;;;8.23;3.15;;;11.60;99.90;;;;;;5084901;28;20175;-47
2024/03/20 10:12:16;;;;;;;6.03;2.97;;;11.60;99.90;;;;;;5085176;28;20027;-48
2024/03/20 10:14:42;;;;;;;9.23;3.72;;;11.60;99.90;;;;;;5088620;28;20274;-47
2024/03/20 10:17:11;;;;;;;7.55;3.20;;;11.70;99.90;;;;;;5088379;28;20070;-50
2024/03/20 10:19:37;;;;;;;6.33;3.47;;;11.80;99.90;;;;;;5088640;28;20031;-50
2024/03/20 10:22:04;;;;;;;9.95;3.97;;;11.90;99.90;;;;;;5088804;28;20128;-49
2024/03/20 10:24:31;;;;;;;8.65;3.97;;;11.90;99.90;;;;;;5088489;28;20025;-50
2024/03/20 10:26:57;;;;;;;8.15;3.13;;;12.00;99.90;;;;;;5108944;28;20081;-49
2024/03/20 10:29:22;;;;;;;7.75;3.28;;;12.00;99.90;;;;;;5108857;28;20036;-50
2024/03/20 10:31:50;;;;;;;7.80;3.13;;;12.10;99.90;;;;;;5090803;28;20031;-47
2024/03/20 10:34:15;;;;;;;6.75;2.60;;;12.10;99.90;;;;;;5090900;28;20027;-49
2024/03/20 10:36:42;;;;;;;6.18;3.20;;;12.10;99.90;;;;;;5090754;28;20020;-50
2024/03/20 10:39:17;;;;;;;6.57;3.25;;;12.10;99.90;;;;;;5073860;28;20120;-50
2024/03/20 10:41:46;;;;;;;9.02;3.30;;;12.10;99.90;;;;;;5076509;28;20237;-50
2024/03/20 10:44:15;;;;;;;8.23;3.60;;;12.00;99.90;;;;;;5107924;28;20222;-51
2024/03/20 10:46:42;;;;;;;6.82;4.15;;;12.10;99.90;;;;;;5089984;28;20177;-49
2024/03/20 10:49:08;;;;;;;8.50;3.45;;;12.10;99.90;;;;;;5090298;28;20351;-49
2024/03/20 10:51:33;;;;;;;7.70;3.35;;;12.10;99.90;;;;;;5090677;28;20024;-45
2024/03/20 10:53:59;;;;;;;8.13;3.40;;;12.10;99.90;;;;;;5108438;28;20020;-48
2024/03/20 10:56:25;;;;;;;9.48;3.63;;;12.00;99.90;;;;;;5090015;28;20031;-50
2024/03/20 10:59:00;;;;;;;8.68;4.13;;;12.10;99.90;;;;;;5090452;28;20043;-51
2024/03/20 11:01:26;;;;;;;8.00;3.50;;;12.20;99.90;;;;;;5108221;28;20020;-49
2024/03/20 11:03:56;;;;;;;8.60;3.65;;;12.40;99.90;;;;;;5107684;28;20096;-50
2024/03/20 11:06:28;;;;;;;8.57;3.25;;;12.40;99.90;;;;;;5090473;28;20020;-50
2024/03/20 11:08:57;;;;;;;6.65;3.80;;;12.40;99.90;;;;;;5107955;28;20103;-50
2024/03/20 11:11:28;;;;;;;6.60;3.70;;;12.50;99.90;;;;;;5108319;28;20299;-50
2024/03/20 11:13:54;;;;;;;9.95;4.18;;;12.60;99.90;;;;;;5090085;28;20104;-49
2024/03/20 11:16:23;;;;;;;8.95;4.00;;;12.50;99.90;;;;;;5090266;28;20023;-50
2024/03/20 11:18:54;;;;;;;9.82;3.78;;;12.50;99.90;;;;;;5108084;28;20024;-50
2024/03/20 11:21:21;;;;;;;8.27;3.70;;;12.30;99.90;;;;;;5107481;28;20084;-48
2024/03/20 11:23:47;;;;;;;7.05;3.97;;;12.40;99.90;;;;;;5106982;28;20031;-50
2024/03/20 11:26:13;;;;;;;9.23;4.43;;;12.20;99.90;;;;;;5107498;28;20063;-50
2024/03/20 11:28:41;;;;;;;9.60;4.32;;;12.10;99.90;;;;;;5107957;28;20028;-47
2024/03/20 11:31:07;;;;;;;10.00;4.57;;;12.10;99.90;;;;;;5107693;28;20077;-51
2024/03/20 11:33:33;;;;;;;10.10;4.65;;;12.10;99.90;;;;;;5107568;28;20047;-49
2024/03/20 11:35:59;;;;;;;8.55;4.78;;;12.00;99.90;;;;;;5089221;28;20197;-50
2024/03/20 11:38:29;;;;;;;12.50;5.70;;;12.10;99.90;;;;;;5072492;28;20024;-50
2024/03/20 11:41:00;;;;;;;8.75;4.55;;;12.20;99.90;;;;;;5090003;28;20281;-49
2024/03/20 11:43:26;;;;;;;9.48;4.00;;;12.20;99.90;;;;;;5108091;28;20046;-50
2024/03/20 11:45:52;;;;;;;10.10;4.97;;;12.00;99.90;;;;;;5107417;28;20055;-48
2024/03/20 11:48:19;;;;;;;9.48;4.95;;;12.00;99.90;;;;;;5107483;28;20032;-50
2024/03/20 11:50:44;;;;;;;11.07;5.60;;;12.00;99.90;;;;;;5089881;28;20020;-51
2024/03/20 11:53:10;;;;;;;13.40;6.07;;;12.00;99.90;;;;;;5106739;28;20030;-49
2024/03/20 11:55:36;;;;;;;11.13;5.47;;;12.10;99.90;;;;;;5107821;28;20077;-50
2024/03/20 11:58:03;;;;;;;13.30;5.63;;;12.20;99.90;;;;;;5107499;28;20278;-49
2024/03/20 12:00:32;;;;;;;10.80;5.13;;;12.20;99.90;;;;;;5089167;28;20027;-47
2024/03/20 12:02:58;;;;;;;9.98;5.95;;;12.20;99.90;;;;;;5106918;28;20024;-50
2024/03/20 12:05:27;;;;;;;15.43;6.45;;;12.20;99.90;;;;;;5107046;28;20088;-49
2024/03/20 12:08:00;;;;;;;12.17;6.67;;;12.20;99.90;;;;;;5106540;28;20279;-51
2024/03/20 12:10:34;;;;;;;12.65;6.35;;;12.30;99.90;;;;;;5106420;28;20056;-50
2024/03/20 12:13:00;;;;;;;10.20;5.93;;;12.40;99.90;;;;;;5089274;28;20030;-49
2024/03/20 12:15:27;;;;;;;10.88;6.13;;;12.40;99.90;;;;;;5106592;28;20024;-52
2024/03/20 12:17:56;;;;;;;11.65;4.97;;;12.40;99.90;;;;;;5106327;28;20185;-51
2024/03/20 12:20:23;;;;;;;8.48;4.80;;;12.60;99.90;;;;;;5106267;28;20034;-51
2024/03/20 12:22:49;;;;;;;10.02;4.80;;;12.70;99.90;;;;;;5106366;28;20045;-51
2024/03/20 12:25:14;;;;;;;8.85;4.85;;;12.80;99.90;;;;;;5088132;28;20203;-51
2024/03/20 12:27:40;;;;;;;10.73;5.88;;;12.70;99.90;;;;;;5106529;28;20261;-50
2024/03/20 12:30:07;;;;;;;7.30;3.67;;;12.60;99.90;;;;;;5088544;28;20035;-51
2024/03/20 12:32:33;;;;;;;7.22;4.18;;;12.60;99.90;;;;;;5106177;28;20137;-51
2024/03/20 12:35:04;;;;;;;9.80;4.18;;;12.60;99.90;;;;;;5088548;28;20256;-48
2024/03/20 12:37:31;;;;;;;7.82;4.38;;;12.80;99.90;;;;;;5106667;28;20024;-49